sensor_id;sensor_type;location;lat;lon;timestamp;P1;P2;P0
73146;PMS7003;61345;48.922;2.244;2022-12-07T00:01:12;59.50;46.25;29.50
73146;PMS7003;61345;48.922;2.244;2022-12-07T00:03:39;60.75;42.00;27.50
73146;PMS7003;61345;48.922;2.244;2022-12-07T00:06:05;52.50;39.25;27.75
73146;PMS7003;61345;48.922;2.244;2022-12-07T00:08:32;40.25;33.00;25.00
73146;PMS7003;61345;48.922;2.244;2022-12-07T00:11:08;57.25;41.25;26.75
73146;PMS7003;61345;48.922;2.244;2022-12-07T00:13:38;67.25;48.25;30.00
73146;PMS7003;61345;48.922;2.244;2022-12-07T00:16:05;57.25;43.75;26.50
73146;PMS7003;61345;48.922;2.244;2022-12-07T00:18:35;55.50;43.00;27.50
73146;PMS7003;61345;48.922;2.244;2022-12-07T00:21:05;51.50;42.25;27.25
73146;PMS7003;61345;48.922;2.244;2022-12-07T00:23:32;46.50;30.25;20.50
73146;PMS7003;61345;48.922;2.244;2022-12-07T00:26:09;65.25;46.25;25.75
73146;PMS7003;61345;48.922;2.244;2022-12-07T00:28:36;56.25;38.25;28.00
73146;PMS7003;61345;48.922;2.244;2022-12-07T00:31:09;53.50;45.00;27.50
73146;PMS7003;61345;48.922;2.244;2022-12-07T00:33:35;50.75;39.50;27.75
73146;PMS7003;61345;48.922;2.244;2022-12-07T00:36:02;48.75;40.50;27.75
73146;PMS7003;61345;48.922;2.244;2022-12-07T00:38:29;60.75;42.75;27.50
73146;PMS7003;61345;48.922;2.244;2022-12-07T00:40:56;42.00;34.00;25.50
73146;PMS7003;61345;48.922;2.244;2022-12-07T00:53:37;44.25;31.25;20.50
73146;PMS7003;61345;48.922;2.244;2022-12-07T00:56:13;44.00;32.50;21.50
73146;PMS7003;61345;48.922;2.244;2022-12-07T00:58:40;43.00;31.50;21.75
73146;PMS7003;61345;48.922;2.244;2022-12-07T01:01:06;47.00;30.25;21.50
73146;PMS7003;61345;48.922;2.244;2022-12-07T01:03:32;53.75;36.50;24.00
73146;PMS7003;61345;48.922;2.244;2022-12-07T01:05:58;43.00;31.50;19.00
73146;PMS7003;61345;48.922;2.244;2022-12-07T01:08:24;39.00;30.00;19.50
73146;PMS7003;61345;48.922;2.244;2022-12-07T01:10:58;36.25;29.25;21.00
73146;PMS7003;61345;48.922;2.244;2022-12-07T01:13:24;42.25;32.50;21.00
73146;PMS7003;61345;48.922;2.244;2022-12-07T01:15:50;30.25;27.50;16.00
73146;PMS7003;61345;48.922;2.244;2022-12-07T01:18:15;31.00;28.50;18.25
73146;PMS7003;61345;48.922;2.244;2022-12-07T01:20:40;38.00;33.50;21.00
73146;PMS7003;61345;48.922;2.244;2022-12-07T01:23:06;55.50;34.50;21.50
73146;PMS7003;61345;48.922;2.244;2022-12-07T01:25:31;43.50;29.50;21.00
73146;PMS7003;61345;48.922;2.244;2022-12-07T01:41:24;30.00;23.00;16.00
73146;PMS7003;61345;48.922;2.244;2022-12-07T01:49:21;41.75;27.50;19.00
73146;PMS7003;61345;48.922;2.244;2022-12-07T01:51:52;30.50;23.25;16.50
73146;PMS7003;61345;48.922;2.244;2022-12-07T01:54:22;33.50;24.50;18.00
73146;PMS7003;61345;48.922;2.244;2022-12-07T01:56:51;37.00;25.25;16.50
73146;PMS7003;61345;48.922;2.244;2022-12-07T01:59:19;29.00;21.50;15.00
73146;PMS7003;61345;48.922;2.244;2022-12-07T02:01:47;36.25;24.25;15.75
73146;PMS7003;61345;48.922;2.244;2022-12-07T02:04:12;26.00;22.00;13.00
73146;PMS7003;61345;48.922;2.244;2022-12-07T02:06:37;27.00;21.25;14.50
73146;PMS7003;61345;48.922;2.244;2022-12-07T02:09:03;29.25;20.50;14.50
73146;PMS7003;61345;48.922;2.244;2022-12-07T02:11:29;31.50;18.25;12.50
73146;PMS7003;61345;48.922;2.244;2022-12-07T02:13:55;33.00;21.50;15.00
73146;PMS7003;61345;48.922;2.244;2022-12-07T02:19:09;26.25;20.50;14.50
73146;PMS7003;61345;48.922;2.244;2022-12-07T02:22:01;20.75;14.00;9.25
73146;PMS7003;61345;48.922;2.244;2022-12-07T02:25:03;26.00;21.00;14.00
73146;PMS7003;61345;48.922;2.244;2022-12-07T02:27:37;32.75;19.50;13.00
73146;PMS7003;61345;48.922;2.244;2022-12-07T02:30:10;25.50;19.50;13.00
73146;PMS7003;61345;48.922;2.244;2022-12-07T02:32:50;16.00;12.00;9.00
73146;PMS7003;61345;48.922;2.244;2022-12-07T02:35:22;26.75;19.00;12.75
73146;PMS7003;61345;48.922;2.244;2022-12-07T02:38:04;24.50;19.50;12.25
73146;PMS7003;61345;48.922;2.244;2022-12-07T02:40:39;29.00;19.50;12.50
73146;PMS7003;61345;48.922;2.244;2022-12-07T02:43:12;21.75;16.00;11.00
73146;PMS7003;61345;48.922;2.244;2022-12-07T02:45:41;22.00;19.50;14.50
73146;PMS7003;61345;48.922;2.244;2022-12-07T02:48:09;26.75;20.50;14.75
73146;PMS7003;61345;48.922;2.244;2022-12-07T02:50:37;30.25;18.75;13.00
73146;PMS7003;61345;48.922;2.244;2022-12-07T02:53:02;31.50;19.00;14.50
73146;PMS7003;61345;48.922;2.244;2022-12-07T02:55:29;27.00;21.25;13.00
73146;PMS7003;61345;48.922;2.244;2022-12-07T02:58:07;32.75;23.25;15.00
73146;PMS7003;61345;48.922;2.244;2022-12-07T03:01:04;29.75;19.25;12.75
73146;PMS7003;61345;48.922;2.244;2022-12-07T03:03:28;29.50;21.25;13.50
73146;PMS7003;61345;48.922;2.244;2022-12-07T03:06:07;22.50;18.00;12.00
73146;PMS7003;61345;48.922;2.244;2022-12-07T03:08:42;30.25;18.50;12.00
73146;PMS7003;61345;48.922;2.244;2022-12-07T03:14:15;18.50;15.50;10.00
73146;PMS7003;61345;48.922;2.244;2022-12-07T03:17:05;25.00;10.00;7.00
73146;PMS7003;61345;48.922;2.244;2022-12-07T03:19:34;22.25;18.00;12.25
73146;PMS7003;61345;48.922;2.244;2022-12-07T03:22:06;23.00;16.25;12.25
73146;PMS7003;61345;48.922;2.244;2022-12-07T03:24:35;22.50;15.75;12.00
73146;PMS7003;61345;48.922;2.244;2022-12-07T03:27:06;24.75;16.00;12.00
73146;PMS7003;61345;48.922;2.244;2022-12-07T03:29:35;20.00;13.25;10.25
73146;PMS7003;61345;48.922;2.244;2022-12-07T03:32:11;26.00;18.25;12.00
73146;PMS7003;61345;48.922;2.244;2022-12-07T03:37:23;21.50;15.25;10.50
73146;PMS7003;61345;48.922;2.244;2022-12-07T03:39:56;22.50;18.75;12.00
73146;PMS7003;61345;48.922;2.244;2022-12-07T03:42:24;20.50;15.00;11.00
73146;PMS7003;61345;48.922;2.244;2022-12-07T03:44:50;25.75;16.50;10.00
73146;PMS7003;61345;48.922;2.244;2022-12-07T03:47:19;23.75;14.75;8.00
73146;PMS7003;61345;48.922;2.244;2022-12-07T03:49:58;22.00;15.75;11.00
73146;PMS7003;61345;48.922;2.244;2022-12-07T03:52:41;24.25;14.50;9.25
73146;PMS7003;61345;48.922;2.244;2022-12-07T03:58:07;20.00;16.00;12.00
73146;PMS7003;61345;48.922;2.244;2022-12-07T04:00:36;22.25;16.75;10.00
73146;PMS7003;61345;48.922;2.244;2022-12-07T04:03:02;12.25;10.50;9.00
73146;PMS7003;61345;48.922;2.244;2022-12-07T04:05:27;20.00;15.50;11.00
73146;PMS7003;61345;48.922;2.244;2022-12-07T04:07:53;19.50;14.50;9.00
73146;PMS7003;61345;48.922;2.244;2022-12-07T04:10:18;24.00;14.00;7.00
73146;PMS7003;61345;48.922;2.244;2022-12-07T04:12:43;18.75;12.00;9.50
73146;PMS7003;61345;48.922;2.244;2022-12-07T04:15:09;32.75;16.00;10.00
73146;PMS7003;61345;48.922;2.244;2022-12-07T04:17:34;15.00;14.00;9.25
73146;PMS7003;61345;48.922;2.244;2022-12-07T04:20:00;21.50;17.75;13.25
73146;PMS7003;61345;48.922;2.244;2022-12-07T04:22:25;21.75;17.00;12.25
73146;PMS7003;61345;48.922;2.244;2022-12-07T04:24:51;21.75;13.50;11.50
73146;PMS7003;61345;48.922;2.244;2022-12-07T04:27:16;24.75;20.00;12.50
73146;PMS7003;61345;48.922;2.244;2022-12-07T04:29:41;12.50;9.00;6.00
73146;PMS7003;61345;48.922;2.244;2022-12-07T04:32:07;23.50;16.00;10.50
73146;PMS7003;61345;48.922;2.244;2022-12-07T04:34:32;24.25;18.00;13.50
73146;PMS7003;61345;48.922;2.244;2022-12-07T04:36:57;24.00;18.00;15.00
73146;PMS7003;61345;48.922;2.244;2022-12-07T04:39:24;19.50;14.00;10.00
73146;PMS7003;61345;48.922;2.244;2022-12-07T04:41:56;23.50;14.00;11.50
73146;PMS7003;61345;48.922;2.244;2022-12-07T04:44:23;28.00;14.50;11.50
73146;PMS7003;61345;48.922;2.244;2022-12-07T04:46:49;17.50;16.00;12.00
73146;PMS7003;61345;48.922;2.244;2022-12-07T04:49:15;13.75;13.00;9.75
73146;PMS7003;61345;48.922;2.244;2022-12-07T04:51:41;17.00;14.50;10.00
73146;PMS7003;61345;48.922;2.244;2022-12-07T04:54:06;19.25;15.50;11.50
73146;PMS7003;61345;48.922;2.244;2022-12-07T04:56:32;16.25;10.50;6.75
73146;PMS7003;61345;48.922;2.244;2022-12-07T04:58:59;20.00;16.00;10.50
73146;PMS7003;61345;48.922;2.244;2022-12-07T05:01:24;15.75;12.25;9.00
73146;PMS7003;61345;48.922;2.244;2022-12-07T05:03:50;8.50;5.50;1.00
73146;PMS7003;61345;48.922;2.244;2022-12-07T05:06:16;23.75;18.75;12.00
73146;PMS7003;61345;48.922;2.244;2022-12-07T05:08:42;12.50;10.50;9.00
73146;PMS7003;61345;48.922;2.244;2022-12-07T05:11:08;14.75;12.00;8.50
73146;PMS7003;61345;48.922;2.244;2022-12-07T05:13:34;19.00;13.50;9.00
73146;PMS7003;61345;48.922;2.244;2022-12-07T05:16:00;21.50;18.00;11.50
73146;PMS7003;61345;48.922;2.244;2022-12-07T05:18:25;15.75;13.00;9.00
73146;PMS7003;61345;48.922;2.244;2022-12-07T05:20:51;23.75;16.00;12.00
73146;PMS7003;61345;48.922;2.244;2022-12-07T05:23:17;26.00;20.00;15.00
73146;PMS7003;61345;48.922;2.244;2022-12-07T05:25:43;21.50;15.50;10.00
73146;PMS7003;61345;48.922;2.244;2022-12-07T05:28:08;28.50;16.00;11.50
73146;PMS7003;61345;48.922;2.244;2022-12-07T05:30:34;23.00;18.00;12.00
73146;PMS7003;61345;48.922;2.244;2022-12-07T05:32:59;24.25;18.00;12.25
73146;PMS7003;61345;48.922;2.244;2022-12-07T05:35:25;23.50;16.00;12.00
73146;PMS7003;61345;48.922;2.244;2022-12-07T05:37:50;21.75;15.00;9.00
73146;PMS7003;61345;48.922;2.244;2022-12-07T05:40:16;23.25;16.50;11.25
73146;PMS7003;61345;48.922;2.244;2022-12-07T05:42:42;22.25;15.25;9.00
73146;PMS7003;61345;48.922;2.244;2022-12-07T05:45:08;19.00;14.00;8.00
73146;PMS7003;61345;48.922;2.244;2022-12-07T05:47:34;15.50;13.50;9.25
73146;PMS7003;61345;48.922;2.244;2022-12-07T05:49:59;21.25;15.75;10.00
73146;PMS7003;61345;48.922;2.244;2022-12-07T05:52:25;18.50;17.00;12.00
73146;PMS7003;61345;48.922;2.244;2022-12-07T05:54:51;21.75;17.00;9.75
73146;PMS7003;61345;48.922;2.244;2022-12-07T05:57:16;15.75;14.50;9.75
73146;PMS7003;61345;48.922;2.244;2022-12-07T05:59:41;17.00;15.25;10.00
73146;PMS7003;61345;48.922;2.244;2022-12-07T06:02:08;23.50;17.00;10.00
73146;PMS7003;61345;48.922;2.244;2022-12-07T06:04:39;17.25;14.00;11.50
73146;PMS7003;61345;48.922;2.244;2022-12-07T06:07:06;19.25;13.25;8.00
73146;PMS7003;61345;48.922;2.244;2022-12-07T06:09:32;23.25;11.50;7.00
73146;PMS7003;61345;48.922;2.244;2022-12-07T06:11:58;23.00;14.75;11.50
73146;PMS7003;61345;48.922;2.244;2022-12-07T06:14:42;17.25;14.50;10.00
73146;PMS7003;61345;48.922;2.244;2022-12-07T06:17:08;18.75;14.00;10.50
73146;PMS7003;61345;48.922;2.244;2022-12-07T06:19:34;23.00;15.75;12.00
73146;PMS7003;61345;48.922;2.244;2022-12-07T06:22:00;14.00;13.25;7.00
73146;PMS7003;61345;48.922;2.244;2022-12-07T06:24:25;24.00;18.25;13.00
73146;PMS7003;61345;48.922;2.244;2022-12-07T06:26:51;23.75;16.25;12.25
73146;PMS7003;61345;48.922;2.244;2022-12-07T06:29:17;23.00;15.00;10.00
73146;PMS7003;61345;48.922;2.244;2022-12-07T06:31:43;30.00;19.50;12.25
73146;PMS7003;61345;48.922;2.244;2022-12-07T06:34:18;21.25;15.25;10.00
73146;PMS7003;61345;48.922;2.244;2022-12-07T06:36:45;22.75;18.00;13.00
73146;PMS7003;61345;48.922;2.244;2022-12-07T06:39:16;28.00;15.25;10.00
73146;PMS7003;61345;48.922;2.244;2022-12-07T06:41:41;24.50;16.00;10.00
73146;PMS7003;61345;48.922;2.244;2022-12-07T06:44:06;22.25;17.50;12.00
73146;PMS7003;61345;48.922;2.244;2022-12-07T06:46:32;24.25;14.75;10.00
73146;PMS7003;61345;48.922;2.244;2022-12-07T06:48:57;13.25;12.25;9.50
73146;PMS7003;61345;48.922;2.244;2022-12-07T06:51:23;24.75;16.50;12.00
73146;PMS7003;61345;48.922;2.244;2022-12-07T06:53:48;19.00;15.50;11.50
73146;PMS7003;61345;48.922;2.244;2022-12-07T06:56:14;24.25;16.75;10.50
73146;PMS7003;61345;48.922;2.244;2022-12-07T06:58:39;22.75;18.00;10.00
73146;PMS7003;61345;48.922;2.244;2022-12-07T07:01:11;18.50;15.50;10.00
73146;PMS7003;61345;48.922;2.244;2022-12-07T07:03:38;20.75;16.00;12.75
73146;PMS7003;61345;48.922;2.244;2022-12-07T07:06:04;21.75;16.00;10.00
73146;PMS7003;61345;48.922;2.244;2022-12-07T07:08:30;29.25;16.25;11.75
73146;PMS7003;61345;48.922;2.244;2022-12-07T07:10:55;27.50;16.00;12.00
73146;PMS7003;61345;48.922;2.244;2022-12-07T07:13:21;17.00;16.00;12.00
73146;PMS7003;61345;48.922;2.244;2022-12-07T07:15:46;18.50;14.50;11.50
73146;PMS7003;61345;48.922;2.244;2022-12-07T07:18:11;21.50;16.50;12.00
73146;PMS7003;61345;48.922;2.244;2022-12-07T07:20:37;19.75;15.25;9.25
73146;PMS7003;61345;48.922;2.244;2022-12-07T07:23:02;30.50;19.00;11.50
73146;PMS7003;61345;48.922;2.244;2022-12-07T07:25:28;31.75;16.25;12.25
73146;PMS7003;61345;48.922;2.244;2022-12-07T07:27:53;28.25;17.00;12.50
73146;PMS7003;61345;48.922;2.244;2022-12-07T07:30:19;23.50;15.00;10.00
73146;PMS7003;61345;48.922;2.244;2022-12-07T07:32:44;14.75;14.00;10.00
73146;PMS7003;61345;48.922;2.244;2022-12-07T07:35:09;23.00;19.50;12.25
73146;PMS7003;61345;48.922;2.244;2022-12-07T07:37:35;20.25;18.25;12.25
73146;PMS7003;61345;48.922;2.244;2022-12-07T07:40:00;25.25;20.00;14.00
73146;PMS7003;61345;48.922;2.244;2022-12-07T07:42:26;26.00;17.50;12.00
73146;PMS7003;61345;48.922;2.244;2022-12-07T07:44:51;30.25;18.50;12.00
73146;PMS7003;61345;48.922;2.244;2022-12-07T07:47:17;27.50;21.25;14.00
73146;PMS7003;61345;48.922;2.244;2022-12-07T07:49:42;21.50;17.25;13.75
73146;PMS7003;61345;48.922;2.244;2022-12-07T07:52:08;27.00;15.50;10.00
73146;PMS7003;61345;48.922;2.244;2022-12-07T07:54:33;15.75;13.00;10.00
73146;PMS7003;61345;48.922;2.244;2022-12-07T07:56:58;18.75;15.50;11.50
73146;PMS7003;61345;48.922;2.244;2022-12-07T07:59:24;20.50;16.00;12.00
73146;PMS7003;61345;48.922;2.244;2022-12-07T08:01:52;20.00;15.50;10.00
73146;PMS7003;61345;48.922;2.244;2022-12-07T08:04:18;15.25;8.50;6.00
73146;PMS7003;61345;48.922;2.244;2022-12-07T08:06:43;37.00;25.00;15.00
73146;PMS7003;61345;48.922;2.244;2022-12-07T08:09:09;30.00;20.00;12.75
73146;PMS7003;61345;48.922;2.244;2022-12-07T08:11:36;26.75;15.75;9.75
73146;PMS7003;61345;48.922;2.244;2022-12-07T08:14:02;20.25;20.00;12.50
73146;PMS7003;61345;48.922;2.244;2022-12-07T08:16:27;20.50;18.75;12.75
73146;PMS7003;61345;48.922;2.244;2022-12-07T08:18:53;32.50;19.00;13.50
73146;PMS7003;61345;48.922;2.244;2022-12-07T08:21:18;21.25;18.00;12.50
73146;PMS7003;61345;48.922;2.244;2022-12-07T08:23:44;18.50;15.25;12.25
73146;PMS7003;61345;48.922;2.244;2022-12-07T08:26:11;21.75;16.00;12.25
73146;PMS7003;61345;48.922;2.244;2022-12-07T08:28:38;32.50;19.00;13.00
73146;PMS7003;61345;48.922;2.244;2022-12-07T08:31:07;33.25;21.25;14.00
73146;PMS7003;61345;48.922;2.244;2022-12-07T08:33:35;36.50;21.75;15.00
73146;PMS7003;61345;48.922;2.244;2022-12-07T08:36:01;21.50;19.25;12.75
73146;PMS7003;61345;48.922;2.244;2022-12-07T08:38:30;30.00;22.25;15.25
73146;PMS7003;61345;48.922;2.244;2022-12-07T08:40:56;30.75;24.00;15.00
73146;PMS7003;61345;48.922;2.244;2022-12-07T08:43:22;38.75;20.00;13.50
73146;PMS7003;61345;48.922;2.244;2022-12-07T08:45:49;24.50;16.00;10.00
73146;PMS7003;61345;48.922;2.244;2022-12-07T08:48:21;32.75;25.00;15.25
73146;PMS7003;61345;48.922;2.244;2022-12-07T08:50:49;34.25;23.50;13.25
73146;PMS7003;61345;48.922;2.244;2022-12-07T08:53:20;29.50;21.50;14.50
73146;PMS7003;61345;48.922;2.244;2022-12-07T08:58:36;28.75;21.75;15.50
73146;PMS7003;61345;48.922;2.244;2022-12-07T09:01:02;30.75;23.50;16.00
73146;PMS7003;61345;48.922;2.244;2022-12-07T09:03:28;33.75;29.50;16.00
73146;PMS7003;61345;48.922;2.244;2022-12-07T09:05:54;38.75;27.00;19.25
73146;PMS7003;61345;48.922;2.244;2022-12-07T09:08:20;39.00;26.00;19.00
73146;PMS7003;61345;48.922;2.244;2022-12-07T09:10:46;29.50;23.75;17.00
73146;PMS7003;61345;48.922;2.244;2022-12-07T09:13:12;36.75;23.00;16.00
73146;PMS7003;61345;48.922;2.244;2022-12-07T09:15:38;29.00;24.75;15.25
73146;PMS7003;61345;48.922;2.244;2022-12-07T09:18:03;31.25;21.25;15.00
73146;PMS7003;61345;48.922;2.244;2022-12-07T09:20:29;29.25;24.75;16.00
73146;PMS7003;61345;48.922;2.244;2022-12-07T09:22:54;36.50;25.00;18.25
73146;PMS7003;61345;48.922;2.244;2022-12-07T09:25:20;25.50;17.00;15.25
73146;PMS7003;61345;48.922;2.244;2022-12-07T09:27:45;34.50;27.00;18.25
73146;PMS7003;61345;48.922;2.244;2022-12-07T09:30:10;24.50;20.00;12.25
73146;PMS7003;61345;48.922;2.244;2022-12-07T09:32:36;35.00;27.50;17.75
73146;PMS7003;61345;48.922;2.244;2022-12-07T09:35:02;34.50;25.50;17.00
73146;PMS7003;61345;48.922;2.244;2022-12-07T09:37:27;31.50;25.50;16.25
73146;PMS7003;61345;48.922;2.244;2022-12-07T09:39:53;25.00;23.00;14.25
73146;PMS7003;61345;48.922;2.244;2022-12-07T09:42:29;32.25;24.00;14.25
73146;PMS7003;61345;48.922;2.244;2022-12-07T09:44:58;32.75;26.75;16.50
73146;PMS7003;61345;48.922;2.244;2022-12-07T09:47:24;36.75;23.25;15.50
73146;PMS7003;61345;48.922;2.244;2022-12-07T09:49:49;34.00;22.75;15.00
73146;PMS7003;61345;48.922;2.244;2022-12-07T09:52:19;35.25;24.00;16.75
73146;PMS7003;61345;48.922;2.244;2022-12-07T09:54:53;35.25;28.00;19.00
73146;PMS7003;61345;48.922;2.244;2022-12-07T09:57:20;28.75;22.25;16.00
73146;PMS7003;61345;48.922;2.244;2022-12-07T09:59:55;32.25;25.00;16.00
73146;PMS7003;61345;48.922;2.244;2022-12-07T10:04:50;42.75;28.00;18.50
73146;PMS7003;61345;48.922;2.244;2022-12-07T10:07:15;35.25;26.00;17.00
73146;PMS7003;61345;48.922;2.244;2022-12-07T10:09:41;30.25;19.25;13.75
73146;PMS7003;61345;48.922;2.244;2022-12-07T10:12:09;28.25;22.00;14.00
73146;PMS7003;61345;48.922;2.244;2022-12-07T10:15:21;30.00;25.75;15.75
73146;PMS7003;61345;48.922;2.244;2022-12-07T10:17:36;34.50;20.00;14.00
73146;PMS7003;61345;48.922;2.244;2022-12-07T10:20:20;29.50;21.25;12.75
73146;PMS7003;61345;48.922;2.244;2022-12-07T10:22:58;31.25;23.25;17.75
73146;PMS7003;61345;48.922;2.244;2022-12-07T10:25:35;36.75;24.25;18.50
73146;PMS7003;61345;48.922;2.244;2022-12-07T10:30:32;34.00;27.00;18.50
73146;PMS7003;61345;48.922;2.244;2022-12-07T10:32:58;26.75;23.00;17.75
73146;PMS7003;61345;48.922;2.244;2022-12-07T10:35:30;35.75;20.50;15.25
73146;PMS7003;61345;48.922;2.244;2022-12-07T10:37:56;26.75;24.25;15.50
73146;PMS7003;61345;48.922;2.244;2022-12-07T10:40:25;33.25;26.00;17.50
73146;PMS7003;61345;48.922;2.244;2022-12-07T10:43:00;27.50;25.00;15.25
73146;PMS7003;61345;48.922;2.244;2022-12-07T10:45:30;32.25;24.00;17.25
73146;PMS7003;61345;48.922;2.244;2022-12-07T10:48:06;37.75;26.00;15.25
73146;PMS7003;61345;48.922;2.244;2022-12-07T10:50:43;41.50;24.25;17.00
73146;PMS7003;61345;48.922;2.244;2022-12-07T10:58:19;29.50;25.25;18.00
73146;PMS7003;61345;48.922;2.244;2022-12-07T11:12:29;51.75;35.25;26.00
73146;PMS7003;61345;48.922;2.244;2022-12-07T11:36:32;22.00;19.25;14.25
73146;PMS7003;61345;48.922;2.244;2022-12-07T11:39:04;27.00;23.75;15.50
73146;PMS7003;61345;48.922;2.244;2022-12-07T11:41:38;34.25;20.50;14.25
73146;PMS7003;61345;48.922;2.244;2022-12-07T11:44:13;32.25;25.00;17.75
73146;PMS7003;61345;48.922;2.244;2022-12-07T11:46:47;32.25;27.00;16.75
73146;PMS7003;61345;48.922;2.244;2022-12-07T11:49:44;30.00;24.25;16.25
73146;PMS7003;61345;48.922;2.244;2022-12-07T11:52:27;30.00;21.00;15.25
73146;PMS7003;61345;48.922;2.244;2022-12-07T11:55:06;29.50;24.50;13.50
73146;PMS7003;61345;48.922;2.244;2022-12-07T11:57:43;28.25;20.50;15.50
73146;PMS7003;61345;48.922;2.244;2022-12-07T12:00:14;28.75;23.75;15.75
73146;PMS7003;61345;48.922;2.244;2022-12-07T12:02:45;22.50;20.50;15.75
73146;PMS7003;61345;48.922;2.244;2022-12-07T12:05:21;32.00;25.00;17.00
73146;PMS7003;61345;48.922;2.244;2022-12-07T12:07:49;28.25;24.50;16.50
73146;PMS7003;61345;48.922;2.244;2022-12-07T12:10:35;26.75;20.25;12.25
73146;PMS7003;61345;48.922;2.244;2022-12-07T12:13:16;31.25;26.75;18.25
73146;PMS7003;61345;48.922;2.244;2022-12-07T12:16:07;19.00;18.00;13.00
73146;PMS7003;61345;48.922;2.244;2022-12-07T12:18:46;30.50;20.75;13.75
73146;PMS7003;61345;48.922;2.244;2022-12-07T12:21:25;21.50;21.00;14.25
73146;PMS7003;61345;48.922;2.244;2022-12-07T12:26:38;30.50;18.75;13.50
73146;PMS7003;61345;48.922;2.244;2022-12-07T12:31:34;19.50;16.00;11.00
73146;PMS7003;61345;48.922;2.244;2022-12-07T12:34:10;21.75;17.75;14.00
73146;PMS7003;61345;48.922;2.244;2022-12-07T12:36:56;22.00;18.75;13.00
73146;PMS7003;61345;48.922;2.244;2022-12-07T12:39:21;24.75;20.50;14.75
73146;PMS7003;61345;48.922;2.244;2022-12-07T12:46:55;32.00;25.25;16.75
73146;PMS7003;61345;48.922;2.244;2022-12-07T12:54:58;15.25;13.50;9.25
73146;PMS7003;61345;48.922;2.244;2022-12-07T12:57:30;26.25;21.00;13.50
73146;PMS7003;61345;48.922;2.244;2022-12-07T12:59:59;23.50;20.00;15.25
73146;PMS7003;61345;48.922;2.244;2022-12-07T13:02:38;33.00;28.25;21.25
73146;PMS7003;61345;48.922;2.244;2022-12-07T13:18:14;17.00;15.50;11.25
73146;PMS7003;61345;48.922;2.244;2022-12-07T13:23:56;16.00;13.50;11.00
73146;PMS7003;61345;48.922;2.244;2022-12-07T13:31:50;17.00;12.25;9.00
73146;PMS7003;61345;48.922;2.244;2022-12-07T13:34:27;13.50;13.50;9.50
73146;PMS7003;61345;48.922;2.244;2022-12-07T13:36:58;16.50;16.50;12.50
73146;PMS7003;61345;48.922;2.244;2022-12-07T13:39:27;19.50;19.00;14.00
73146;PMS7003;61345;48.922;2.244;2022-12-07T13:41:56;25.75;20.50;16.75
73146;PMS7003;61345;48.922;2.244;2022-12-07T13:44:23;23.50;21.25;15.75
73146;PMS7003;61345;48.922;2.244;2022-12-07T13:46:59;18.25;14.75;12.25
73146;PMS7003;61345;48.922;2.244;2022-12-07T13:49:31;21.50;16.00;11.25
73146;PMS7003;61345;48.922;2.244;2022-12-07T13:52:16;14.75;11.25;9.50
73146;PMS7003;61345;48.922;2.244;2022-12-07T13:54:45;23.25;16.75;11.00
73146;PMS7003;61345;48.922;2.244;2022-12-07T13:57:27;15.75;15.25;11.00
73146;PMS7003;61345;48.922;2.244;2022-12-07T13:59:55;20.00;16.25;10.50
73146;PMS7003;61345;48.922;2.244;2022-12-07T14:02:22;16.50;14.25;11.00
73146;PMS7003;61345;48.922;2.244;2022-12-07T14:04:51;25.25;14.75;10.25
73146;PMS7003;61345;48.922;2.244;2022-12-07T14:09:53;15.25;12.50;9.00
73146;PMS7003;61345;48.922;2.244;2022-12-07T14:12:29;11.25;9.00;7.25
73146;PMS7003;61345;48.922;2.244;2022-12-07T14:14:56;14.25;8.25;6.75
73146;PMS7003;61345;48.922;2.244;2022-12-07T14:17:25;9.50;9.25;7.25
73146;PMS7003;61345;48.922;2.244;2022-12-07T14:22:35;14.00;10.00;7.75
73146;PMS7003;61345;48.922;2.244;2022-12-07T14:25:11;14.50;10.25;8.00
73146;PMS7003;61345;48.922;2.244;2022-12-07T14:27:50;14.00;10.25;7.75
73146;PMS7003;61345;48.922;2.244;2022-12-07T14:30:21;18.00;13.75;11.00
73146;PMS7003;61345;48.922;2.244;2022-12-07T14:32:48;14.75;11.25;8.00
73146;PMS7003;61345;48.922;2.244;2022-12-07T14:35:17;17.00;14.00;9.50
73146;PMS7003;61345;48.922;2.244;2022-12-07T14:37:47;16.50;10.75;8.50
73146;PMS7003;61345;48.922;2.244;2022-12-07T14:40:14;19.25;15.75;11.00
73146;PMS7003;61345;48.922;2.244;2022-12-07T14:42:41;17.75;15.50;11.00
73146;PMS7003;61345;48.922;2.244;2022-12-07T14:45:12;12.50;8.00;6.25
73146;PMS7003;61345;48.922;2.244;2022-12-07T14:47:38;11.00;8.50;7.00
73146;PMS7003;61345;48.922;2.244;2022-12-07T14:50:04;11.25;9.00;7.00
73146;PMS7003;61345;48.922;2.244;2022-12-07T14:52:30;20.00;16.50;13.50
73146;PMS7003;61345;48.922;2.244;2022-12-07T14:54:55;15.00;10.00;7.50
73146;PMS7003;61345;48.922;2.244;2022-12-07T14:57:20;12.00;10.50;7.25
73146;PMS7003;61345;48.922;2.244;2022-12-07T14:59:46;14.00;12.00;10.00
73146;PMS7003;61345;48.922;2.244;2022-12-07T15:02:12;15.00;9.50;6.75
73146;PMS7003;61345;48.922;2.244;2022-12-07T15:04:38;11.75;11.75;9.75
73146;PMS7003;61345;48.922;2.244;2022-12-07T15:07:04;12.00;11.00;7.00
73146;PMS7003;61345;48.922;2.244;2022-12-07T15:09:30;17.75;11.25;7.00
73146;PMS7003;61345;48.922;2.244;2022-12-07T15:11:55;15.75;14.00;10.50
73146;PMS7003;61345;48.922;2.244;2022-12-07T15:14:21;13.50;10.00;6.75
73146;PMS7003;61345;48.922;2.244;2022-12-07T15:16:46;17.25;12.00;9.00
73146;PMS7003;61345;48.922;2.244;2022-12-07T15:19:13;20.50;15.25;11.25
73146;PMS7003;61345;48.922;2.244;2022-12-07T15:21:50;23.25;12.50;9.00
73146;PMS7003;61345;48.922;2.244;2022-12-07T15:24:15;21.00;12.50;8.25
73146;PMS7003;61345;48.922;2.244;2022-12-07T15:26:41;16.50;13.00;7.50
73146;PMS7003;61345;48.922;2.244;2022-12-07T15:29:07;14.25;12.00;9.00
73146;PMS7003;61345;48.922;2.244;2022-12-07T15:31:32;17.25;12.00;9.00
73146;PMS7003;61345;48.922;2.244;2022-12-07T15:33:58;28.50;28.50;21.50
73146;PMS7003;61345;48.922;2.244;2022-12-07T15:36:25;19.75;15.75;10.25
73146;PMS7003;61345;48.922;2.244;2022-12-07T15:38:52;18.00;16.25;11.25
73146;PMS7003;61345;48.922;2.244;2022-12-07T15:41:19;17.25;13.50;10.00
73146;PMS7003;61345;48.922;2.244;2022-12-07T15:43:44;10.25;10.00;7.75
73146;PMS7003;61345;48.922;2.244;2022-12-07T15:46:29;21.25;11.50;6.00
73146;PMS7003;61345;48.922;2.244;2022-12-07T15:48:55;13.00;9.50;8.00
73146;PMS7003;61345;48.922;2.244;2022-12-07T15:51:20;20.50;10.00;6.50
73146;PMS7003;61345;48.922;2.244;2022-12-07T15:53:46;12.75;9.25;5.75
73146;PMS7003;61345;48.922;2.244;2022-12-07T15:56:11;19.25;12.50;7.00
73146;PMS7003;61345;48.922;2.244;2022-12-07T15:58:36;15.25;8.75;6.00
73146;PMS7003;61345;48.922;2.244;2022-12-07T16:01:09;16.00;11.50;8.00
73146;PMS7003;61345;48.922;2.244;2022-12-07T16:03:38;26.25;12.00;9.00
73146;PMS7003;61345;48.922;2.244;2022-12-07T16:06:03;36.25;26.25;20.25
73146;PMS7003;61345;48.922;2.244;2022-12-07T16:08:29;18.25;13.25;10.25